Time;durP1;ratioP1;P1;durP2;ratioP2;P2;SDS_P1;SDS_P2;PMS_P1;PMS_P2;Temp;Humidity;BMP_temperature;BMP_pressure;BME280_temperature;BME280_humidity;BME280_pressure;Samples;Min_cycle;Max_cycle;Signal;HPM_P1;HPM_P2
2024/01/14 00:00:09;;;;;;;21.37;12.20;;;;;;;;;;5042799;28;20204;-68
2024/01/14 00:02:38;;;;;;;21.60;12.47;;;;;;;;;;5039872;28;20247;-68
2024/01/14 00:05:05;;;;;;;20.27;12.50;;;;;;;;;;5038508;28;20264;-68
2024/01/14 00:07:33;;;;;;;20.47;12.93;;;;;;;;;;5045542;28;20204;-67
2024/01/14 00:10:01;;;;;;;20.30;11.93;;;;;;;;;;5047021;28;20231;-67
2024/01/14 00:12:28;;;;;;;21.93;12.50;;;;;;;;;;5042271;28;20196;-67
2024/01/14 00:14:55;;;;;;;18.00;11.73;;;;;;;;;;5046300;28;20263;-67
2024/01/14 00:17:22;;;;;;;18.57;11.77;;;;;;;;;;5041220;28;20212;-67
2024/01/14 00:19:50;;;;;;;21.40;12.73;;;;;;;;;;5041266;28;20200;-66
2024/01/14 00:22:18;;;;;;;18.50;12.23;;;;;;;;;;5041228;28;20213;-67
2024/01/14 00:24:45;;;;;;;19.27;12.37;;;;;;;;;;5049885;28;20207;-67
2024/01/14 00:27:13;;;;;;;22.13;12.53;;;;;;;;;;5045027;28;20202;-67
2024/01/14 00:29:40;;;;;;;22.03;12.73;;;;;;;;;;5043699;28;20223;-67
2024/01/14 00:32:07;;;;;;;20.47;12.93;;;;;;;;;;5039298;28;20207;-67
2024/01/14 00:34:34;;;;;;;19.57;12.80;;;;;;;;;;5045019;28;20556;-67
2024/01/14 00:37:02;;;;;;;19.90;12.10;;;;;;;;;;5045499;28;20208;-68
2024/01/14 00:39:29;;;;;;;19.80;12.50;;;;;;;;;;5047909;28;20208;-68
2024/01/14 00:41:56;;;;;;;20.97;12.63;;;;;;;;;;5044586;28;20195;-68
2024/01/14 00:44:24;;;;;;;20.50;12.17;;;;;;;;;;5042915;28;20212;-67
2024/01/14 00:46:52;;;;;;;20.93;12.30;;;;;;;;;;5039890;28;20627;-67
2024/01/14 00:49:19;;;;;;;22.07;12.63;;;;;;;;;;5044810;28;20228;-68
2024/01/14 00:51:47;;;;;;;23.33;12.70;;;;;;;;;;5042096;28;20221;-68
2024/01/14 00:54:14;;;;;;;22.60;12.73;;;;;;;;;;5043004;28;20207;-62
2024/01/14 00:56:41;;;;;;;18.60;11.83;;;;;;;;;;5044859;28;20207;-62
2024/01/14 00:59:08;;;;;;;20.77;11.93;;;;;;;;;;5045211;28;20231;-62
2024/01/14 01:01:37;;;;;;;19.17;12.03;;;;;;;;;;5047597;28;20326;-62
2024/01/14 01:04:04;;;;;;;22.67;12.20;;;;;;;;;;5045591;28;20209;-62
2024/01/14 01:06:31;;;;;;;18.57;11.57;;;;;;;;;;5047261;28;20212;-62
2024/01/14 01:08:58;;;;;;;20.33;12.63;;;;;;;;;;5051412;28;20212;-62
2024/01/14 01:11:25;;;;;;;20.50;12.17;;;;;;;;;;5046823;28;20223;-62
2024/01/14 01:13:53;;;;;;;18.90;11.77;;;;;;;;;;5045792;28;20196;-62
2024/01/14 01:16:20;;;;;;;18.50;11.73;;;;;;;;;;5049826;28;20203;-62
2024/01/14 01:18:48;;;;;;;17.43;11.47;;;;;;;;;;5040229;28;20203;-62
2024/01/14 01:21:19;;;;;;;21.57;13.03;;;;;;;;;;5041379;28;20209;-62
2024/01/14 01:23:46;;;;;;;18.90;12.00;;;;;;;;;;5042743;28;20217;-62
2024/01/14 01:26:13;;;;;;;17.53;10.90;;;;;;;;;;5048065;28;20204;-63
2024/01/14 01:28:40;;;;;;;21.10;12.77;;;;;;;;;;5046774;28;20199;-63
2024/01/14 01:31:07;;;;;;;22.67;13.07;;;;;;;;;;5042168;28;20227;-62
2024/01/14 01:33:34;;;;;;;23.20;13.20;;;;;;;;;;5048596;28;20198;-63
2024/01/14 01:36:03;;;;;;;19.00;12.37;;;;;;;;;;5042284;28;20222;-62
2024/01/14 01:38:30;;;;;;;20.43;12.27;;;;;;;;;;5040079;28;20195;-62
2024/01/14 01:40:57;;;;;;;18.10;11.93;;;;;;;;;;5040020;28;20200;-64
2024/01/14 01:43:24;;;;;;;19.83;11.90;;;;;;;;;;5042701;28;20207;-62
2024/01/14 01:45:51;;;;;;;22.37;13.37;;;;;;;;;;5044755;28;20372;-62
2024/01/14 01:48:19;;;;;;;19.80;12.63;;;;;;;;;;5042013;28;20211;-62
2024/01/14 01:50:47;;;;;;;23.13;13.63;;;;;;;;;;5045782;28;20223;-63
2024/01/14 01:53:16;;;;;;;19.03;12.30;;;;;;;;;;5039744;28;20196;-63
2024/01/14 01:55:43;;;;;;;23.43;12.73;;;;;;;;;;5039492;28;20200;-62
2024/01/14 01:58:10;;;;;;;24.70;13.47;;;;;;;;;;5041798;28;20195;-63
2024/01/14 02:00:38;;;;;;;23.50;13.37;;;;;;;;;;5043254;28;20214;-62
2024/01/14 02:03:07;;;;;;;21.30;13.03;;;;;;;;;;5040248;28;20232;-62
2024/01/14 02:05:35;;;;;;;23.10;13.07;;;;;;;;;;5043468;28;20246;-67
2024/01/14 02:08:02;;;;;;;23.63;13.57;;;;;;;;;;5043910;28;20213;-68
2024/01/14 02:10:31;;;;;;;21.23;12.17;;;;;;;;;;5038211;28;20225;-67
2024/01/14 02:12:59;;;;;;;25.07;13.43;;;;;;;;;;5038520;28;20212;-67
2024/01/14 02:15:26;;;;;;;23.47;13.47;;;;;;;;;;5036891;28;20260;-67
2024/01/14 02:17:53;;;;;;;23.83;14.00;;;;;;;;;;5046549;28;20206;-67
2024/01/14 02:20:20;;;;;;;24.00;13.70;;;;;;;;;;5042559;28;20201;-67
2024/01/14 02:22:50;;;;;;;25.17;14.37;;;;;;;;;;5042506;28;20208;-67
2024/01/14 02:25:19;;;;;;;25.67;14.40;;;;;;;;;;5044645;28;20432;-67
2024/01/14 02:27:47;;;;;;;24.37;14.20;;;;;;;;;;5042335;28;20213;-67
2024/01/14 02:30:15;;;;;;;24.90;13.93;;;;;;;;;;5039035;28;20215;-67
2024/01/14 02:32:42;;;;;;;21.80;13.30;;;;;;;;;;5042889;28;20210;-66
2024/01/14 02:35:09;;;;;;;21.90;13.40;;;;;;;;;;5040246;28;20203;-68
2024/01/14 02:37:38;;;;;;;23.07;13.70;;;;;;;;;;5037755;28;20203;-67
2024/01/14 02:40:06;;;;;;;27.57;14.37;;;;;;;;;;5042470;28;20265;-67
2024/01/14 02:42:34;;;;;;;26.63;14.83;;;;;;;;;;5044804;28;20207;-68
2024/01/14 02:45:01;;;;;;;26.27;14.07;;;;;;;;;;5042737;28;20214;-69
2024/01/14 02:47:29;;;;;;;25.60;13.43;;;;;;;;;;5043146;28;20210;-68
2024/01/14 02:49:56;;;;;;;25.93;14.50;;;;;;;;;;5039514;28;20212;-69
2024/01/14 02:52:23;;;;;;;26.77;13.90;;;;;;;;;;5039869;28;20208;-70
2024/01/14 02:54:50;;;;;;;23.60;13.27;;;;;;;;;;5039291;28;20210;-70
2024/01/14 02:57:17;;;;;;;24.40;14.67;;;;;;;;;;5041552;28;20214;-69
2024/01/14 02:59:46;;;;;;;22.23;13.03;;;;;;;;;;5044687;28;20208;-68
2024/01/14 03:02:13;;;;;;;28.53;14.77;;;;;;;;;;5038358;28;20249;-72
2024/01/14 03:04:40;;;;;;;21.43;12.40;;;;;;;;;;5040870;28;20215;-68
2024/01/14 03:07:07;;;;;;;24.50;12.67;;;;;;;;;;5036308;28;20214;-69
2024/01/14 03:09:34;;;;;;;22.13;13.03;;;;;;;;;;5043402;28;20213;-71
2024/01/14 03:12:01;;;;;;;23.33;14.03;;;;;;;;;;5041586;28;20224;-67
2024/01/14 03:14:28;;;;;;;24.23;13.47;;;;;;;;;;5038514;28;20204;-68
2024/01/14 03:16:59;;;;;;;24.27;13.07;;;;;;;;;;5040965;28;20254;-70
2024/01/14 03:19:26;;;;;;;24.50;13.23;;;;;;;;;;5041887;28;21303;-70
2024/01/14 03:21:53;;;;;;;26.63;13.40;;;;;;;;;;5041793;28;20206;-71
2024/01/14 03:24:20;;;;;;;28.53;13.60;;;;;;;;;;5039910;28;20301;-70
2024/01/14 03:26:47;;;;;;;22.23;12.27;;;;;;;;;;5037869;28;20200;-70
2024/01/14 03:29:15;;;;;;;20.00;12.03;;;;;;;;;;5044426;28;20206;-69
2024/01/14 03:31:42;;;;;;;23.07;12.83;;;;;;;;;;5041104;28;20245;-70
2024/01/14 03:34:10;;;;;;;20.80;12.63;;;;;;;;;;5039578;28;20200;-67
2024/01/14 03:36:37;;;;;;;26.13;12.77;;;;;;;;;;5046444;28;20208;-67
2024/01/14 03:39:05;;;;;;;22.13;12.63;;;;;;;;;;5040201;28;20298;-68
2024/01/14 03:41:32;;;;;;;26.20;12.83;;;;;;;;;;5044337;28;20267;-67
2024/01/14 03:43:59;;;;;;;19.80;11.23;;;;;;;;;;5039989;28;20207;-67
2024/01/14 03:46:26;;;;;;;21.90;12.67;;;;;;;;;;5042548;28;20214;-67
2024/01/14 03:48:53;;;;;;;22.03;12.27;;;;;;;;;;5045723;28;20211;-67
2024/01/14 03:51:22;;;;;;;24.17;12.33;;;;;;;;;;5047221;28;20227;-67
2024/01/14 03:53:49;;;;;;;21.17;10.20;;;;;;;;;;5047539;28;20206;-68
2024/01/14 03:56:16;;;;;;;23.70;12.10;;;;;;;;;;5039918;28;20204;-67
2024/01/14 03:58:43;;;;;;;19.37;11.27;;;;;;;;;;5042437;28;20211;-67
2024/01/14 04:01:13;;;;;;;22.43;11.73;;;;;;;;;;5045968;28;20318;-67
2024/01/14 04:03:40;;;;;;;22.80;12.17;;;;;;;;;;5043398;28;20211;-68
2024/01/14 04:06:08;;;;;;;20.90;10.63;;;;;;;;;;5043580;28;20257;-67
2024/01/14 04:08:36;;;;;;;24.47;11.37;;;;;;;;;;5043331;28;20267;-68
2024/01/14 04:11:04;;;;;;;21.53;10.60;;;;;;;;;;5042631;28;20224;-67
2024/01/14 04:13:31;;;;;;;19.57;10.77;;;;;;;;;;5041839;28;20200;-66
2024/01/14 04:15:58;;;;;;;18.67;10.17;;;;;;;;;;5042060;28;20320;-67
2024/01/14 04:18:25;;;;;;;18.67;10.30;;;;;;;;;;5042888;28;20210;-68
2024/01/14 04:20:52;;;;;;;19.90;9.50;;;;;;;;;;5045246;28;20191;-67
2024/01/14 04:23:19;;;;;;;17.87;9.53;;;;;;;;;;5045095;28;20213;-66
2024/01/14 04:25:48;;;;;;;17.17;9.60;;;;;;;;;;5044824;28;20203;-62
2024/01/14 04:28:15;;;;;;;18.47;10.00;;;;;;;;;;5039943;28;20208;-63
2024/01/14 04:30:42;;;;;;;21.20;9.40;;;;;;;;;;5048467;28;20249;-61
2024/01/14 04:33:09;;;;;;;18.20;10.33;;;;;;;;;;5042894;28;20372;-62
2024/01/14 04:35:36;;;;;;;17.27;8.97;;;;;;;;;;5044937;28;20200;-62
2024/01/14 04:38:03;;;;;;;16.27;9.50;;;;;;;;;;5044804;28;20214;-62
2024/01/14 04:40:30;;;;;;;16.87;9.17;;;;;;;;;;5050153;28;20210;-62
2024/01/14 04:42:59;;;;;;;19.50;8.73;;;;;;;;;;5042115;28;20204;-62
2024/01/14 04:45:26;;;;;;;18.53;9.33;;;;;;;;;;5040087;28;20196;-61
2024/01/14 04:47:53;;;;;;;18.30;9.20;;;;;;;;;;5040970;28;20310;-62
2024/01/14 04:50:20;;;;;;;18.30;9.60;;;;;;;;;;5040714;28;20312;-62
2024/01/14 04:52:47;;;;;;;17.17;9.33;;;;;;;;;;5044129;28;20204;-61
2024/01/14 04:55:14;;;;;;;17.37;8.87;;;;;;;;;;5041932;28;20212;-62
2024/01/14 04:57:42;;;;;;;18.87;9.63;;;;;;;;;;5044449;28;20200;-61
2024/01/14 05:00:12;;;;;;;18.30;8.97;;;;;;;;;;5046818;28;20214;-61
2024/01/14 05:02:39;;;;;;;19.73;9.13;;;;;;;;;;5043315;28;20235;-61
2024/01/14 05:05:06;;;;;;;17.73;9.73;;;;;;;;;;5042829;28;20637;-62
2024/01/14 05:07:33;;;;;;;20.13;9.37;;;;;;;;;;5044947;28;20200;-62
2024/01/14 05:10:01;;;;;;;19.60;9.93;;;;;;;;;;5043909;28;20210;-62
2024/01/14 05:12:28;;;;;;;19.57;9.07;;;;;;;;;;5040202;28;20228;-63
2024/01/14 05:14:55;;;;;;;24.07;10.70;;;;;;;;;;5044732;28;20211;-61
2024/01/14 05:17:24;;;;;;;18.30;9.20;;;;;;;;;;5038608;28;20242;-62
2024/01/14 05:19:51;;;;;;;22.20;9.93;;;;;;;;;;5041678;28;20212;-64
2024/01/14 05:22:18;;;;;;;18.67;9.67;;;;;;;;;;5041107;28;20199;-62
2024/01/14 05:24:46;;;;;;;20.83;9.80;;;;;;;;;;5041550;28;20204;-63
2024/01/14 05:27:13;;;;;;;20.67;11.27;;;;;;;;;;5041631;28;20210;-62
2024/01/14 05:29:41;;;;;;;19.13;10.10;;;;;;;;;;5044871;28;20196;-62
2024/01/14 05:32:09;;;;;;;22.80;10.60;;;;;;;;;;5046624;28;20216;-63
2024/01/14 05:34:37;;;;;;;23.90;10.40;;;;;;;;;;5045121;28;20196;-68
2024/01/14 05:37:05;;;;;;;26.10;11.17;;;;;;;;;;5043685;28;20198;-67
2024/01/14 05:39:32;;;;;;;21.77;10.90;;;;;;;;;;5039356;28;20224;-67
2024/01/14 05:41:59;;;;;;;20.10;10.33;;;;;;;;;;5043121;28;20229;-67
2024/01/14 05:44:26;;;;;;;19.33;10.43;;;;;;;;;;5041579;28;20313;-67
2024/01/14 05:46:53;;;;;;;24.73;10.90;;;;;;;;;;5040677;28;20234;-68
2024/01/14 05:49:21;;;;;;;22.10;10.33;;;;;;;;;;5044011;28;20204;-68
2024/01/14 05:51:49;;;;;;;21.00;9.77;;;;;;;;;;5037672;28;20224;-67
2024/01/14 05:54:17;;;;;;;21.50;10.27;;;;;;;;;;5036179;28;20218;-68
2024/01/14 05:56:44;;;;;;;21.20;10.40;;;;;;;;;;5040876;28;20207;-68
2024/01/14 05:59:11;;;;;;;20.77;10.37;;;;;;;;;;5042678;28;20215;-67
2024/01/14 06:01:39;;;;;;;23.30;11.30;;;;;;;;;;5040403;28;20224;-68
2024/01/14 06:04:06;;;;;;;21.33;10.80;;;;;;;;;;5037751;28;20207;-67
2024/01/14 06:06:33;;;;;;;21.57;10.63;;;;;;;;;;5039337;28;20212;-67
2024/01/14 06:09:01;;;;;;;23.23;11.20;;;;;;;;;;5040620;28;20218;-68
2024/01/14 06:11:28;;;;;;;22.27;10.37;;;;;;;;;;5039478;28;20223;-68
2024/01/14 06:13:55;;;;;;;18.40;10.83;;;;;;;;;;5044927;28;20428;-68
2024/01/14 06:16:23;;;;;;;21.33;10.43;;;;;;;;;;5044515;28;20206;-67
2024/01/14 06:18:50;;;;;;;18.97;11.07;;;;;;;;;;5040593;28;20196;-67
2024/01/14 06:21:17;;;;;;;19.00;10.60;;;;;;;;;;5045226;28;20199;-68
2024/01/14 06:23:44;;;;;;;22.87;12.70;;;;;;;;;;5044439;28;20210;-68
2024/01/14 06:26:17;;;;;;;24.10;12.30;;;;;;;;;;5040699;28;20219;-68
2024/01/14 06:28:44;;;;;;;23.67;11.47;;;;;;;;;;5040371;28;20238;-68
2024/01/14 06:31:11;;;;;;;23.93;11.90;;;;;;;;;;5039605;28;20294;-67
2024/01/14 06:33:39;;;;;;;25.80;12.20;;;;;;;;;;5040171;28;20295;-67
2024/01/14 06:36:06;;;;;;;22.07;12.17;;;;;;;;;;5042121;28;20209;-68
2024/01/14 06:38:34;;;;;;;24.33;12.50;;;;;;;;;;5038436;28;20203;-68
2024/01/14 06:41:01;;;;;;;21.60;11.93;;;;;;;;;;5038937;28;20204;-68
2024/01/14 06:43:30;;;;;;;22.97;11.90;;;;;;;;;;5049724;28;20271;-68
2024/01/14 06:45:57;;;;;;;25.90;12.63;;;;;;;;;;5041495;28;20200;-68
2024/01/14 06:48:25;;;;;;;24.60;12.17;;;;;;;;;;5040740;28;20203;-68
2024/01/14 06:50:52;;;;;;;29.13;13.53;;;;;;;;;;5041504;28;20214;-67
2024/01/14 06:53:19;;;;;;;27.53;14.17;;;;;;;;;;5044529;28;20222;-68
2024/01/14 06:55:47;;;;;;;28.83;14.03;;;;;;;;;;5045233;28;20221;-68
2024/01/14 06:58:14;;;;;;;23.33;13.27;;;;;;;;;;5040035;28;20208;-66
2024/01/14 07:00:44;;;;;;;24.63;12.80;;;;;;;;;;5040388;28;20204;-66
2024/01/14 07:03:11;;;;;;;26.37;12.40;;;;;;;;;;5036847;28;20204;-66
2024/01/14 07:05:38;;;;;;;30.97;13.10;;;;;;;;;;5044010;28;20199;-67
2024/01/14 07:08:06;;;;;;;29.63;14.97;;;;;;;;;;5045077;28;20214;-67
2024/01/14 07:10:33;;;;;;;36.30;17.13;;;;;;;;;;5042912;28;20210;-68
2024/01/14 07:13:00;;;;;;;29.43;14.17;;;;;;;;;;5041887;28;20227;-67
2024/01/14 07:15:27;;;;;;;24.30;12.87;;;;;;;;;;5044840;28;20206;-66
2024/01/14 07:17:55;;;;;;;29.00;13.47;;;;;;;;;;5042178;28;20199;-68
2024/01/14 07:20:22;;;;;;;31.03;14.97;;;;;;;;;;5038420;28;20204;-67
2024/01/14 07:22:49;;;;;;;34.83;14.27;;;;;;;;;;5043079;28;20207;-68
2024/01/14 07:25:17;;;;;;;29.73;14.03;;;;;;;;;;5039180;28;20203;-68
2024/01/14 07:27:44;;;;;;;32.77;13.87;;;;;;;;;;5039675;28;20549;-68
2024/01/14 07:30:11;;;;;;;30.43;13.70;;;;;;;;;;5045453;28;20216;-67
2024/01/14 07:32:38;;;;;;;28.20;13.13;;;;;;;;;;5039612;28;20226;-67
2024/01/14 07:35:07;;;;;;;29.17;13.83;;;;;;;;;;5040214;28;20215;-67
2024/01/14 07:37:34;;;;;;;29.97;13.80;;;;;;;;;;5038998;28;20209;-66
2024/01/14 07:40:02;;;;;;;29.10;13.63;;;;;;;;;;5043446;28;20213;-67
2024/01/14 07:42:29;;;;;;;28.83;13.30;;;;;;;;;;5040322;28;20263;-66
2024/01/14 07:44:56;;;;;;;27.53;13.40;;;;;;;;;;5042377;28;20202;-67
2024/01/14 07:47:23;;;;;;;24.70;13.50;;;;;;;;;;5032065;28;20208;-67
2024/01/14 07:49:50;;;;;;;28.60;14.47;;;;;;;;;;5030243;28;20203;-67
2024/01/14 07:52:19;;;;;;;29.20;13.43;;;;;;;;;;5024252;28;20227;-66
2024/01/14 07:54:46;;;;;;;26.97;13.33;;;;;;;;;;5026697;28;20318;-68
2024/01/14 07:57:13;;;;;;;23.90;12.87;;;;;;;;;;5032084;28;20447;-67
2024/01/14 07:59:40;;;;;;;27.60;13.43;;;;;;;;;;5033024;28;20210;-67
2024/01/14 08:02:08;;;;;;;29.13;14.13;;;;;;;;;;5026574;28;20239;-66
2024/01/14 08:04:35;;;;;;;26.43;14.37;;;;;;;;;;5029436;28;20223;-67
2024/01/14 08:07:03;;;;;;;30.50;15.23;;;;;;;;;;5028083;28;20767;-66
2024/01/14 08:09:32;;;;;;;28.03;15.30;;;;;;;;;;5026709;28;20230;-67
2024/01/14 08:11:59;;;;;;;30.67;15.10;;;;;;;;;;5025190;28;20233;-67
2024/01/14 08:14:26;;;;;;;26.90;13.77;;;;;;;;;;5025733;28;20208;-67
2024/01/14 08:16:53;;;;;;;32.60;15.43;;;;;;;;;;5026611;28;20208;-66
2024/01/14 08:19:21;;;;;;;27.93;15.37;;;;;;;;;;5027142;28;20211;-67
2024/01/14 08:21:48;;;;;;;33.30;16.23;;;;;;;;;;5025814;28;20198;-67
2024/01/14 08:24:15;;;;;;;25.30;14.53;;;;;;;;;;5028673;28;20214;-66
2024/01/14 08:26:46;;;;;;;36.83;16.00;;;;;;;;;;5029375;28;20217;-66
2024/01/14 08:29:14;;;;;;;33.70;15.53;;;;;;;;;;5030277;28;20199;-66
2024/01/14 08:31:41;;;;;;;30.17;15.00;;;;;;;;;;5029831;28;20211;-67
2024/01/14 08:34:08;;;;;;;28.10;14.83;;;;;;;;;;5030135;28;20214;-67
2024/01/14 08:36:36;;;;;;;27.27;14.60;;;;;;;;;;5029477;28;20233;-67
2024/01/14 08:39:03;;;;;;;19.47;10.23;;;;;;;;;;5034339;28;20208;-66
2024/01/14 08:41:31;;;;;;;16.10;8.63;;;;;;;;;;5035928;28;20246;-66
2024/01/14 08:44:04;;;;;;;24.63;11.40;;;;;;;;;;5032383;28;20239;-66
2024/01/14 08:46:31;;;;;;;22.27;12.63;;;;;;;;;;5035033;28;20297;-66
2024/01/14 08:48:58;;;;;;;22.73;11.80;;;;;;;;;;5042402;28;20214;-66
2024/01/14 08:51:25;;;;;;;19.07;9.90;;;;;;;;;;5038331;28;20853;-66
2024/01/14 08:53:52;;;;;;;19.73;10.40;;;;;;;;;;5029828;28;20208;-66
2024/01/14 08:56:19;;;;;;;22.30;11.10;;;;;;;;;;5035779;28;20302;-66
2024/01/14 08:58:47;;;;;;;26.50;12.73;;;;;;;;;;5035334;28;20201;-66
2024/01/14 09:01:16;;;;;;;29.73;13.30;;;;;;;;;;5035302;28;20305;-66
2024/01/14 09:03:44;;;;;;;28.10;13.73;;;;;;;;;;5037053;28;20235;-66
2024/01/14 09:06:11;;;;;;;32.90;12.67;;;;;;;;;;5044402;28;20325;-66
2024/01/14 09:08:38;;;;;;;23.60;12.57;;;;;;;;;;5045111;28;20210;-67
2024/01/14 09:11:05;;;;;;;26.33;12.13;;;;;;;;;;5040614;28;20215;-66
2024/01/14 09:13:32;;;;;;;25.83;12.80;;;;;;;;;;5035994;28;20224;-66
2024/01/14 09:15:59;;;;;;;28.63;14.13;;;;;;;;;;5043107;28;20209;-67
2024/01/14 09:18:28;;;;;;;25.87;12.90;;;;;;;;;;5036032;28;20203;-66
2024/01/14 09:20:55;;;;;;;23.17;11.53;;;;;;;;;;5033421;28;20207;-66
2024/01/14 09:23:22;;;;;;;26.60;12.37;;;;;;;;;;5030302;28;20204;-67
2024/01/14 09:25:49;;;;;;;23.70;12.43;;;;;;;;;;5033545;28;20200;-66
2024/01/14 09:28:16;;;;;;;25.47;12.63;;;;;;;;;;5033161;28;20215;-66
2024/01/14 09:30:43;;;;;;;22.27;11.37;;;;;;;;;;5042026;28;20208;-67
2024/01/14 09:33:11;;;;;;;24.60;12.20;;;;;;;;;;5040066;28;20273;-68
2024/01/14 09:35:39;;;;;;;24.47;10.90;;;;;;;;;;5043539;28;20204;-68
2024/01/14 09:38:06;;;;;;;24.73;11.97;;;;;;;;;;5038593;28;20244;-68
2024/01/14 09:40:34;;;;;;;22.57;11.10;;;;;;;;;;5043055;28;20476;-68
2024/01/14 09:43:01;;;;;;;22.23;10.83;;;;;;;;;;5043269;28;20219;-67
2024/01/14 09:45:28;;;;;;;33.43;12.10;;;;;;;;;;5041540;28;20243;-67
2024/01/14 09:47:56;;;;;;;20.30;10.60;;;;;;;;;;5043024;28;20208;-67
2024/01/14 09:50:24;;;;;;;20.57;9.67;;;;;;;;;;5040866;28;20208;-68
2024/01/14 09:52:53;;;;;;;20.20;10.33;;;;;;;;;;5039678;28;20250;-69
2024/01/14 09:55:20;;;;;;;19.27;10.70;;;;;;;;;;5042654;28;20212;-69
2024/01/14 09:57:49;;;;;;;22.50;11.33;;;;;;;;;;5020683;28;20236;-69
2024/01/14 10:00:17;;;;;;;22.63;9.57;;;;;;;;;;5014051;28;20243;-69
2024/01/14 10:02:44;;;;;;;18.23;9.93;;;;;;;;;;5020407;28;20236;-69
2024/01/14 10:05:12;;;;;;;18.73;9.30;;;;;;;;;;5016489;28;20254;-69
2024/01/14 10:07:39;;;;;;;21.33;10.00;;;;;;;;;;5020898;28;20270;-68
2024/01/14 10:10:09;;;;;;;21.00;11.20;;;;;;;;;;5021086;28;20203;-68
2024/01/14 10:12:36;;;;;;;19.10;9.90;;;;;;;;;;5024176;28;20227;-70
2024/01/14 10:15:04;;;;;;;20.63;10.47;;;;;;;;;;5022330;28;20218;-63
2024/01/14 10:17:33;;;;;;;24.60;10.83;;;;;;;;;;5017521;28;20262;-63
2024/01/14 10:20:00;;;;;;;26.93;10.90;;;;;;;;;;5022370;28;20207;-63
2024/01/14 10:22:27;;;;;;;22.90;10.60;;;;;;;;;;5019406;28;20196;-64
2024/01/14 10:24:55;;;;;;;21.93;10.47;;;;;;;;;;5021113;28;20212;-64
2024/01/14 10:27:24;;;;;;;21.03;9.83;;;;;;;;;;5021018;28;20196;-64
2024/01/14 10:29:51;;;;;;;23.17;10.50;;;;;;;;;;5021999;28;20196;-63
2024/01/14 10:32:19;;;;;;;24.80;10.27;;;;;;;;;;5020863;28;20207;-63
2024/01/14 10:34:46;;;;;;;19.03;9.73;;;;;;;;;;5021610;28;20200;-63
2024/01/14 10:37:13;;;;;;;21.50;10.80;;;;;;;;;;5020656;28;20216;-64
2024/01/14 10:39:42;;;;;;;19.87;10.10;;;;;;;;;;5020251;28;20205;-63
2024/01/14 10:42:09;;;;;;;19.73;9.60;;;;;;;;;;5021407;28;20220;-64
2024/01/14 10:44:37;;;;;;;22.70;10.23;;;;;;;;;;5021247;28;20203;-63
2024/01/14 10:47:05;;;;;;;20.83;9.97;;;;;;;;;;5020163;28;20218;-63
2024/01/14 10:49:34;;;;;;;21.63;10.97;;;;;;;;;;5020400;28;20205;-63
2024/01/14 10:52:03;;;;;;;20.73;9.50;;;;;;;;;;5022459;28;20204;-63
2024/01/14 10:54:34;;;;;;;18.40;9.13;;;;;;;;;;5027163;28;20314;-65
2024/01/14 10:57:06;;;;;;;20.93;10.33;;;;;;;;;;5018952;28;20212;-63
2024/01/14 10:59:37;;;;;;;22.00;10.23;;;;;;;;;;5016646;28;20213;-64
2024/01/14 11:02:09;;;;;;;20.73;9.90;;;;;;;;;;5019660;28;20241;-63
2024/01/14 11:04:36;;;;;;;20.47;9.87;;;;;;;;;;5021820;28;20211;-63
2024/01/14 11:07:05;;;;;;;21.40;10.30;;;;;;;;;;5022213;28;20203;-63
2024/01/14 11:09:32;;;;;;;28.80;10.40;;;;;;;;;;5024192;28;20204;-63
2024/01/14 11:12:04;;;;;;;17.77;9.43;;;;;;;;;;5025477;28;20212;-63
2024/01/14 11:14:36;;;;;;;24.93;10.83;;;;;;;;;;5019856;28;20250;-63
2024/01/14 11:17:07;;;;;;;30.53;10.63;;;;;;;;;;5019889;28;20211;-63
2024/01/14 11:19:37;;;;;;;24.23;12.07;;;;;;;;;;5019737;28;20204;-63
2024/01/14 11:22:12;;;;;;;88.73;14.03;;;;;;;;;;5018764;28;20232;-63
2024/01/14 11:24:40;;;;;;;23.63;11.70;;;;;;;;;;5019112;28;20232;-69
2024/01/14 11:27:07;;;;;;;20.23;11.00;;;;;;;;;;5018395;28;20212;-69
2024/01/14 11:29:34;;;;;;;55.17;12.10;;;;;;;;;;5021550;28;20200;-68
2024/01/14 11:32:11;;;;;;;22.40;10.60;;;;;;;;;;5016488;28;20398;-68
2024/01/14 11:34:57;;;;;;;24.60;10.87;;;;;;;;;;5012188;28;20224;-68
2024/01/14 11:37:40;;;;;;;32.17;10.50;;;;;;;;;;5018462;28;20205;-68
2024/01/14 11:40:12;;;;;;;34.23;12.50;;;;;;;;;;5011003;28;20292;-68
2024/01/14 11:42:39;;;;;;;24.00;12.80;;;;;;;;;;5018719;28;20203;-69
2024/01/14 11:45:14;;;;;;;27.57;11.90;;;;;;;;;;5016425;28;20196;-68
2024/01/14 11:47:43;;;;;;;19.83;11.73;;;;;;;;;;5017664;28;20211;-69
2024/01/14 11:50:14;;;;;;;20.90;11.83;;;;;;;;;;5016166;28;20209;-69
2024/01/14 11:52:42;;;;;;;25.47;12.83;;;;;;;;;;5012619;28;20220;-68
2024/01/14 11:55:12;;;;;;;40.23;11.53;;;;;;;;;;5018799;28;20242;-68
2024/01/14 11:57:39;;;;;;;29.43;11.93;;;;;;;;;;5011838;28;20213;-68
2024/01/14 12:00:07;;;;;;;21.37;11.60;;;;;;;;;;5009932;28;20208;-68
2024/01/14 12:02:34;;;;;;;20.67;10.83;;;;;;;;;;5019237;28;20236;-69
2024/01/14 12:05:16;;;;;;;24.90;11.10;;;;;;;;;;5018478;28;20208;-69
2024/01/14 12:07:45;;;;;;;22.10;11.13;;;;;;;;;;5020250;28;20211;-68
2024/01/14 12:10:14;;;;;;;21.57;11.90;;;;;;;;;;5022857;28;20199;-69
2024/01/14 12:12:41;;;;;;;45.03;12.33;;;;;;;;;;5019633;28;20204;-68
2024/01/14 12:15:09;;;;;;;27.47;12.23;;;;;;;;;;5024311;28;20209;-68
2024/01/14 12:17:37;;;;;;;34.97;16.43;;;;;;;;;;5015194;28;20215;-68
2024/01/14 12:20:05;;;;;;;33.33;17.23;;;;;;;;;;5019980;28;20213;-68
2024/01/14 12:22:32;;;;;;;23.57;13.00;;;;;;;;;;5023264;28;20213;-69
2024/01/14 12:25:03;;;;;;;26.17;12.47;;;;;;;;;;5017957;28;20200;-68
2024/01/14 12:27:30;;;;;;;26.73;12.47;;;;;;;;;;5021140;28;20211;-68
2024/01/14 12:29:57;;;;;;;22.67;11.20;;;;;;;;;;5020426;28;20201;-68
2024/01/14 12:32:25;;;;;;;17.93;10.73;;;;;;;;;;5019275;28;20259;-68
2024/01/14 12:34:52;;;;;;;21.93;10.30;;;;;;;;;;5018450;28;20227;-68
2024/01/14 12:37:19;;;;;;;29.77;11.33;;;;;;;;;;5011591;28;20209;-68
2024/01/14 12:39:46;;;;;;;32.67;11.23;;;;;;;;;;5017804;28;20205;-67
2024/01/14 12:42:14;;;;;;;17.10;10.03;;;;;;;;;;5010240;28;20208;-68
2024/01/14 12:44:43;;;;;;;25.83;11.60;;;;;;;;;;5011495;28;20204;-69
2024/01/14 12:47:10;;;;;;;37.13;12.10;;;;;;;;;;5010851;28;20246;-68
2024/01/14 12:49:38;;;;;;;22.90;11.47;;;;;;;;;;5013441;28;20215;-68
2024/01/14 12:52:06;;;;;;;22.83;10.30;;;;;;;;;;5011675;28;20240;-68
2024/01/14 12:54:34;;;;;;;18.40;10.67;;;;;;;;;;5012660;28;20227;-67
2024/01/14 12:57:01;;;;;;;22.03;11.03;;;;;;;;;;5009976;28;20204;-68
2024/01/14 12:59:30;;;;;;;19.23;10.70;;;;;;;;;;5012320;28;20204;-68
2024/01/14 13:01:57;;;;;;;42.67;11.83;;;;;;;;;;5018087;28;20246;-68
2024/01/14 13:04:25;;;;;;;19.27;11.00;;;;;;;;;;5010470;28;20204;-67
2024/01/14 13:06:52;;;;;;;24.20;12.87;;;;;;;;;;5009099;28;20217;-68
2024/01/14 13:09:20;;;;;;;24.73;11.80;;;;;;;;;;5011036;28;20524;-68
2024/01/14 13:11:47;;;;;;;24.33;12.10;;;;;;;;;;5010812;28;20202;-69
2024/01/14 13:14:14;;;;;;;30.37;10.67;;;;;;;;;;5007978;28;20228;-69
2024/01/14 13:16:43;;;;;;;27.97;10.97;;;;;;;;;;5007691;28;20216;-68
2024/01/14 13:19:10;;;;;;;32.00;11.30;;;;;;;;;;5011510;28;20208;-68
2024/01/14 13:21:37;;;;;;;30.87;11.20;;;;;;;;;;5007645;28;20208;-68
2024/01/14 13:24:04;;;;;;;18.53;10.00;;;;;;;;;;5006033;28;20224;-68
2024/01/14 13:26:31;;;;;;;53.37;11.03;;;;;;;;;;5008224;28;20361;-68
2024/01/14 13:28:59;;;;;;;20.40;10.37;;;;;;;;;;5008679;28;20204;-69
2024/01/14 13:31:26;;;;;;;17.73;9.67;;;;;;;;;;5005580;28;20291;-68
2024/01/14 13:33:55;;;;;;;25.30;10.43;;;;;;;;;;5009045;28;20235;-68
2024/01/14 13:36:22;;;;;;;19.73;10.13;;;;;;;;;;5007847;28;22381;-68
2024/01/14 13:38:49;;;;;;;36.83;10.47;;;;;;;;;;5011286;28;20232;-69
2024/01/14 13:41:16;;;;;;;20.93;10.37;;;;;;;;;;5008340;28;20213;-68
2024/01/14 13:43:43;;;;;;;29.43;9.60;;;;;;;;;;5010153;28;20215;-68
2024/01/14 13:46:10;;;;;;;35.20;10.00;;;;;;;;;;5012551;28;20201;-65
2024/01/14 13:48:37;;;;;;;17.13;10.10;;;;;;;;;;5010268;28;20221;-64
2024/01/14 13:51:06;;;;;;;30.73;13.23;;;;;;;;;;5009765;28;20208;-63
2024/01/14 13:53:33;;;;;;;42.87;11.73;;;;;;;;;;5009022;28;20229;-65
2024/01/14 13:56:00;;;;;;;27.33;11.60;;;;;;;;;;5010569;28;20223;-64
2024/01/14 13:58:27;;;;;;;20.80;11.17;;;;;;;;;;5012033;28;20212;-65
2024/01/14 14:00:54;;;;;;;18.10;10.97;;;;;;;;;;5010146;28;20214;-64
2024/01/14 14:03:22;;;;;;;26.87;10.63;;;;;;;;;;5013433;28;20212;-63
2024/01/14 14:05:49;;;;;;;19.83;10.50;;;;;;;;;;5014351;28;20207;-64
2024/01/14 14:08:18;;;;;;;19.73;10.27;;;;;;;;;;5017436;28;20262;-63
2024/01/14 14:10:45;;;;;;;20.80;11.23;;;;;;;;;;5010612;28;20196;-65
2024/01/14 14:13:13;;;;;;;27.33;10.53;;;;;;;;;;5009767;28;20219;-65
2024/01/14 14:15:40;;;;;;;49.40;12.20;;;;;;;;;;5011462;28;20216;-64
2024/01/14 14:18:08;;;;;;;20.90;11.17;;;;;;;;;;5010884;28;20200;-63
2024/01/14 14:20:35;;;;;;;22.13;11.53;;;;;;;;;;5013709;28;20271;-64